sensor_id;sensor_type;location;lat;lon;timestamp;temperature;humidity
51500;DHT22;39101;53.478;6.158;2023-04-06T00:01:37;3.90;99.90
51500;DHT22;39101;53.478;6.158;2023-04-06T00:04:04;3.90;99.90
51500;DHT22;39101;53.478;6.158;2023-04-06T00:06:30;3.80;99.90
51500;DHT22;39101;53.478;6.158;2023-04-06T00:08:57;3.80;99.90
51500;DHT22;39101;53.478;6.158;2023-04-06T00:11:23;3.70;99.90
51500;DHT22;39101;53.478;6.158;2023-04-06T00:13:49;3.70;99.90
51500;DHT22;39101;53.478;6.158;2023-04-06T00:16:14;3.70;99.90
51500;DHT22;39101;53.478;6.158;2023-04-06T00:18:40;3.70;99.90
51500;DHT22;39101;53.478;6.158;2023-04-06T00:21:06;3.70;99.90
51500;DHT22;39101;53.478;6.158;2023-04-06T00:23:32;3.70;99.90
51500;DHT22;39101;53.478;6.158;2023-04-06T00:25:57;3.70;99.90
51500;DHT22;39101;53.478;6.158;2023-04-06T00:28:23;3.60;99.90
51500;DHT22;39101;53.478;6.158;2023-04-06T00:30:52;3.60;99.90
51500;DHT22;39101;53.478;6.158;2023-04-06T00:33:20;3.50;99.90
51500;DHT22;39101;53.478;6.158;2023-04-06T00:35:46;3.50;99.90
51500;DHT22;39101;53.478;6.158;2023-04-06T00:38:12;3.50;99.90
51500;DHT22;39101;53.478;6.158;2023-04-06T00:40:38;3.40;99.90
51500;DHT22;39101;53.478;6.158;2023-04-06T00:43:06;3.40;99.90
51500;DHT22;39101;53.478;6.158;2023-04-06T00:45:32;3.50;99.90
51500;DHT22;39101;53.478;6.158;2023-04-06T00:47:58;3.40;99.90
51500;DHT22;39101;53.478;6.158;2023-04-06T00:50:24;3.40;99.90
51500;DHT22;39101;53.478;6.158;2023-04-06T00:52:50;3.30;99.90
51500;DHT22;39101;53.478;6.158;2023-04-06T00:55:16;3.20;99.90
51500;DHT22;39101;53.478;6.158;2023-04-06T00:57:42;3.30;99.90
51500;DHT22;39101;53.478;6.158;2023-04-06T01:00:08;3.30;99.90
51500;DHT22;39101;53.478;6.158;2023-04-06T01:02:34;3.30;99.90
51500;DHT22;39101;53.478;6.158;2023-04-06T01:04:59;3.30;99.90
51500;DHT22;39101;53.478;6.158;2023-04-06T01:07:25;3.20;99.90
51500;DHT22;39101;53.478;6.158;2023-04-06T01:09:53;3.20;99.90
51500;DHT22;39101;53.478;6.158;2023-04-06T01:12:19;3.20;99.90
51500;DHT22;39101;53.478;6.158;2023-04-06T01:14:44;3.20;99.90
51500;DHT22;39101;53.478;6.158;2023-04-06T01:17:10;3.10;99.90
51500;DHT22;39101;53.478;6.158;2023-04-06T01:19:36;3.20;99.90
51500;DHT22;39101;53.478;6.158;2023-04-06T01:22:02;3.10;99.90
51500;DHT22;39101;53.478;6.158;2023-04-06T01:24:28;3.10;99.90
51500;DHT22;39101;53.478;6.158;2023-04-06T01:26:53;3.10;99.90
51500;DHT22;39101;53.478;6.158;2023-04-06T01:29:20;3.10;99.90
51500;DHT22;39101;53.478;6.158;2023-04-06T01:31:45;3.10;99.90
51500;DHT22;39101;53.478;6.158;2023-04-06T01:34:11;3.10;99.90
51500;DHT22;39101;53.478;6.158;2023-04-06T01:36:37;3.10;99.90
51500;DHT22;39101;53.478;6.158;2023-04-06T01:39:03;3.10;99.90
51500;DHT22;39101;53.478;6.158;2023-04-06T01:41:28;3.10;99.90
51500;DHT22;39101;53.478;6.158;2023-04-06T01:43:54;3.10;99.90
51500;DHT22;39101;53.478;6.158;2023-04-06T01:46:20;2.90;99.90
51500;DHT22;39101;53.478;6.158;2023-04-06T01:48:46;3.00;99.90
51500;DHT22;39101;53.478;6.158;2023-04-06T01:51:11;2.90;99.90
51500;DHT22;39101;53.478;6.158;2023-04-06T01:53:37;2.90;99.90
51500;DHT22;39101;53.478;6.158;2023-04-06T01:56:03;2.80;99.90
51500;DHT22;39101;53.478;6.158;2023-04-06T01:58:29;2.90;99.90
51500;DHT22;39101;53.478;6.158;2023-04-06T02:00:54;2.90;99.90
51500;DHT22;39101;53.478;6.158;2023-04-06T02:03:20;2.90;99.90
51500;DHT22;39101;53.478;6.158;2023-04-06T02:05:46;2.70;99.90
51500;DHT22;39101;53.478;6.158;2023-04-06T02:08:12;2.90;99.90
51500;DHT22;39101;53.478;6.158;2023-04-06T02:10:37;2.80;99.90
51500;DHT22;39101;53.478;6.158;2023-04-06T02:13:03;2.80;99.90
51500;DHT22;39101;53.478;6.158;2023-04-06T02:15:29;2.80;99.90
51500;DHT22;39101;53.478;6.158;2023-04-06T02:17:54;2.80;99.90
51500;DHT22;39101;53.478;6.158;2023-04-06T02:20:20;2.70;99.90
51500;DHT22;39101;53.478;6.158;2023-04-06T02:22:46;2.60;99.90
51500;DHT22;39101;53.478;6.158;2023-04-06T02:25:11;2.60;99.90
51500;DHT22;39101;53.478;6.158;2023-04-06T02:27:37;2.70;99.90
51500;DHT22;39101;53.478;6.158;2023-04-06T02:30:04;2.50;99.90
51500;DHT22;39101;53.478;6.158;2023-04-06T02:32:30;2.50;99.90
51500;DHT22;39101;53.478;6.158;2023-04-06T02:34:56;2.50;99.90
51500;DHT22;39101;53.478;6.158;2023-04-06T02:37:21;2.50;99.90
51500;DHT22;39101;53.478;6.158;2023-04-06T02:39:49;2.50;99.90
51500;DHT22;39101;53.478;6.158;2023-04-06T02:42:15;2.40;99.90
51500;DHT22;39101;53.478;6.158;2023-04-06T02:44:42;2.50;99.90
51500;DHT22;39101;53.478;6.158;2023-04-06T02:47:08;2.50;99.90
51500;DHT22;39101;53.478;6.158;2023-04-06T02:49:33;2.40;99.90
51500;DHT22;39101;53.478;6.158;2023-04-06T02:51:59;2.50;99.90
51500;DHT22;39101;53.478;6.158;2023-04-06T02:54:25;2.50;99.90
51500;DHT22;39101;53.478;6.158;2023-04-06T02:56:51;2.40;99.90
51500;DHT22;39101;53.478;6.158;2023-04-06T02:59:16;2.40;99.90
51500;DHT22;39101;53.478;6.158;2023-04-06T03:01:42;2.30;99.90
51500;DHT22;39101;53.478;6.158;2023-04-06T03:04:08;2.40;99.90
51500;DHT22;39101;53.478;6.158;2023-04-06T03:06:33;2.40;99.90
51500;DHT22;39101;53.478;6.158;2023-04-06T03:08:59;2.30;99.90
51500;DHT22;39101;53.478;6.158;2023-04-06T03:11:25;2.30;99.90
51500;DHT22;39101;53.478;6.158;2023-04-06T03:13:52;2.30;99.90
51500;DHT22;39101;53.478;6.158;2023-04-06T03:16:17;2.30;99.90
51500;DHT22;39101;53.478;6.158;2023-04-06T03:18:43;2.30;99.90
51500;DHT22;39101;53.478;6.158;2023-04-06T03:21:13;2.30;99.90
51500;DHT22;39101;53.478;6.158;2023-04-06T03:23:41;2.30;99.90
51500;DHT22;39101;53.478;6.158;2023-04-06T03:26:06;2.20;99.90
51500;DHT22;39101;53.478;6.158;2023-04-06T03:28:32;2.20;99.90
51500;DHT22;39101;53.478;6.158;2023-04-06T03:30:58;2.20;99.90
51500;DHT22;39101;53.478;6.158;2023-04-06T03:33:24;2.20;99.90
51500;DHT22;39101;53.478;6.158;2023-04-06T03:35:53;2.00;99.90
51500;DHT22;39101;53.478;6.158;2023-04-06T03:38:18;2.00;99.90
51500;DHT22;39101;53.478;6.158;2023-04-06T03:40:44;2.00;99.90
51500;DHT22;39101;53.478;6.158;2023-04-06T03:43:10;2.10;99.90
51500;DHT22;39101;53.478;6.158;2023-04-06T03:45:35;2.00;99.90
51500;DHT22;39101;53.478;6.158;2023-04-06T03:48:01;2.00;99.90
51500;DHT22;39101;53.478;6.158;2023-04-06T03:50:27;2.00;99.90
51500;DHT22;39101;53.478;6.158;2023-04-06T03:52:52;2.00;99.90
51500;DHT22;39101;53.478;6.158;2023-04-06T03:55:18;1.90;99.90
51500;DHT22;39101;53.478;6.158;2023-04-06T03:57:44;1.90;99.90
51500;DHT22;39101;53.478;6.158;2023-04-06T04:00:10;1.90;99.90
51500;DHT22;39101;53.478;6.158;2023-04-06T04:02:36;1.80;99.90
51500;DHT22;39101;53.478;6.158;2023-04-06T04:05:02;1.80;99.90
51500;DHT22;39101;53.478;6.158;2023-04-06T04:07:28;1.90;99.90
51500;DHT22;39101;53.478;6.158;2023-04-06T04:09:53;1.90;99.90
51500;DHT22;39101;53.478;6.158;2023-04-06T04:12:19;1.80;99.90
51500;DHT22;39101;53.478;6.158;2023-04-06T04:14:45;1.90;99.90
51500;DHT22;39101;53.478;6.158;2023-04-06T04:17:11;1.90;99.90
51500;DHT22;39101;53.478;6.158;2023-04-06T04:19:36;1.70;99.90
51500;DHT22;39101;53.478;6.158;2023-04-06T04:22:02;1.80;99.90
51500;DHT22;39101;53.478;6.158;2023-04-06T04:24:30;1.70;99.90
51500;DHT22;39101;53.478;6.158;2023-04-06T04:26:56;1.70;99.90
51500;DHT22;39101;53.478;6.158;2023-04-06T04:29:22;1.70;99.90
51500;DHT22;39101;53.478;6.158;2023-04-06T04:31:48;1.70;99.90
51500;DHT22;39101;53.478;6.158;2023-04-06T04:34:15;1.60;99.90
51500;DHT22;39101;53.478;6.158;2023-04-06T04:36:40;1.70;99.90
51500;DHT22;39101;53.478;6.158;2023-04-06T04:39:07;1.60;99.90
51500;DHT22;39101;53.478;6.158;2023-04-06T04:41:33;1.60;99.90
51500;DHT22;39101;53.478;6.158;2023-04-06T04:43:59;1.60;99.90
51500;DHT22;39101;53.478;6.158;2023-04-06T04:46:25;1.50;99.90
51500;DHT22;39101;53.478;6.158;2023-04-06T04:48:51;1.70;99.90
51500;DHT22;39101;53.478;6.158;2023-04-06T04:51:17;1.40;99.90
51500;DHT22;39101;53.478;6.158;2023-04-06T04:53:42;1.50;99.90
51500;DHT22;39101;53.478;6.158;2023-04-06T04:56:08;1.50;99.90
51500;DHT22;39101;53.478;6.158;2023-04-06T04:58:34;1.50;99.90
51500;DHT22;39101;53.478;6.158;2023-04-06T05:00:59;1.50;99.90
51500;DHT22;39101;53.478;6.158;2023-04-06T05:03:26;1.40;99.90
51500;DHT22;39101;53.478;6.158;2023-04-06T05:05:52;1.40;99.90
51500;DHT22;39101;53.478;6.158;2023-04-06T05:08:18;1.40;99.90
51500;DHT22;39101;53.478;6.158;2023-04-06T05:10:44;1.40;99.90
51500;DHT22;39101;53.478;6.158;2023-04-06T05:13:10;1.30;99.90
51500;DHT22;39101;53.478;6.158;2023-04-06T05:15:36;1.40;99.90
51500;DHT22;39101;53.478;6.158;2023-04-06T05:18:06;1.40;99.90
51500;DHT22;39101;53.478;6.158;2023-04-06T05:20:32;1.40;99.90
51500;DHT22;39101;53.478;6.158;2023-04-06T05:22:58;1.40;99.90
51500;DHT22;39101;53.478;6.158;2023-04-06T05:25:24;1.40;99.90
51500;DHT22;39101;53.478;6.158;2023-04-06T05:27:50;1.40;99.90
51500;DHT22;39101;53.478;6.158;2023-04-06T05:30:16;1.50;99.90
51500;DHT22;39101;53.478;6.158;2023-04-06T05:32:42;1.50;99.90
51500;DHT22;39101;53.478;6.158;2023-04-06T05:35:10;1.50;99.90
51500;DHT22;39101;53.478;6.158;2023-04-06T05:37:36;1.60;99.90
51500;DHT22;39101;53.478;6.158;2023-04-06T05:40:02;1.50;99.90
51500;DHT22;39101;53.478;6.158;2023-04-06T05:42:35;1.50;99.90
51500;DHT22;39101;53.478;6.158;2023-04-06T05:45:02;1.70;99.90
51500;DHT22;39101;53.478;6.158;2023-04-06T05:47:27;1.60;99.90
51500;DHT22;39101;53.478;6.158;2023-04-06T05:49:53;1.70;99.90
51500;DHT22;39101;53.478;6.158;2023-04-06T05:52:19;1.70;99.90
51500;DHT22;39101;53.478;6.158;2023-04-06T05:54:44;1.80;99.90
51500;DHT22;39101;53.478;6.158;2023-04-06T05:57:10;1.90;99.90
51500;DHT22;39101;53.478;6.158;2023-04-06T05:59:36;1.90;99.90
51500;DHT22;39101;53.478;6.158;2023-04-06T06:02:01;2.00;99.90
51500;DHT22;39101;53.478;6.158;2023-04-06T06:04:27;2.10;99.90
51500;DHT22;39101;53.478;6.158;2023-04-06T06:06:53;2.10;99.90
51500;DHT22;39101;53.478;6.158;2023-04-06T06:09:18;2.30;99.90
51500;DHT22;39101;53.478;6.158;2023-04-06T06:11:44;2.30;99.90
51500;DHT22;39101;53.478;6.158;2023-04-06T06:14:10;2.40;99.90
51500;DHT22;39101;53.478;6.158;2023-04-06T06:16:36;2.40;99.90
51500;DHT22;39101;53.478;6.158;2023-04-06T06:19:01;2.60;99.90
51500;DHT22;39101;53.478;6.158;2023-04-06T06:21:27;2.70;99.90
51500;DHT22;39101;53.478;6.158;2023-04-06T06:23:53;2.70;99.90
51500;DHT22;39101;53.478;6.158;2023-04-06T06:26:20;2.80;99.90
51500;DHT22;39101;53.478;6.158;2023-04-06T06:28:45;2.80;99.90
51500;DHT22;39101;53.478;6.158;2023-04-06T06:31:11;2.90;99.90
51500;DHT22;39101;53.478;6.158;2023-04-06T06:33:37;3.00;99.90
51500;DHT22;39101;53.478;6.158;2023-04-06T06:36:03;3.00;99.90
51500;DHT22;39101;53.478;6.158;2023-04-06T06:38:29;3.10;99.90
51500;DHT22;39101;53.478;6.158;2023-04-06T06:40:55;3.20;99.90
51500;DHT22;39101;53.478;6.158;2023-04-06T06:43:20;3.30;99.90
51500;DHT22;39101;53.478;6.158;2023-04-06T06:45:46;3.30;99.90
51500;DHT22;39101;53.478;6.158;2023-04-06T06:48:12;3.30;99.90
51500;DHT22;39101;53.478;6.158;2023-04-06T06:50:38;3.40;99.90
51500;DHT22;39101;53.478;6.158;2023-04-06T06:53:03;3.50;99.90
51500;DHT22;39101;53.478;6.158;2023-04-06T06:55:29;3.60;99.90
51500;DHT22;39101;53.478;6.158;2023-04-06T06:57:55;3.60;99.90
51500;DHT22;39101;53.478;6.158;2023-04-06T07:00:21;3.80;99.90
51500;DHT22;39101;53.478;6.158;2023-04-06T07:02:47;3.80;99.90
51500;DHT22;39101;53.478;6.158;2023-04-06T07:05:13;3.90;99.90
51500;DHT22;39101;53.478;6.158;2023-04-06T07:07:39;4.00;99.90
51500;DHT22;39101;53.478;6.158;2023-04-06T07:10:06;4.20;99.90
51500;DHT22;39101;53.478;6.158;2023-04-06T07:12:31;4.30;99.90
51500;DHT22;39101;53.478;6.158;2023-04-06T07:14:57;4.40;99.90
51500;DHT22;39101;53.478;6.158;2023-04-06T07:17:23;4.50;99.90
51500;DHT22;39101;53.478;6.158;2023-04-06T07:19:48;4.50;99.90
51500;DHT22;39101;53.478;6.158;2023-04-06T07:22:14;4.60;99.90
51500;DHT22;39101;53.478;6.158;2023-04-06T07:24:40;4.80;99.90
51500;DHT22;39101;53.478;6.158;2023-04-06T07:27:06;4.80;99.90
51500;DHT22;39101;53.478;6.158;2023-04-06T07:29:31;5.00;99.90
51500;DHT22;39101;53.478;6.158;2023-04-06T07:31:57;5.10;99.90
51500;DHT22;39101;53.478;6.158;2023-04-06T07:34:23;5.20;99.90
51500;DHT22;39101;53.478;6.158;2023-04-06T07:36:49;5.30;99.90
51500;DHT22;39101;53.478;6.158;2023-04-06T07:39:15;5.40;99.90
51500;DHT22;39101;53.478;6.158;2023-04-06T07:41:41;5.50;99.90
51500;DHT22;39101;53.478;6.158;2023-04-06T07:44:07;5.50;99.90
51500;DHT22;39101;53.478;6.158;2023-04-06T07:46:32;5.70;99.90
51500;DHT22;39101;53.478;6.158;2023-04-06T07:49:00;5.80;99.90
51500;DHT22;39101;53.478;6.158;2023-04-06T07:51:26;5.80;99.90
51500;DHT22;39101;53.478;6.158;2023-04-06T07:53:52;5.90;99.90
51500;DHT22;39101;53.478;6.158;2023-04-06T07:56:18;6.00;99.90
51500;DHT22;39101;53.478;6.158;2023-04-06T07:58:44;6.10;99.90
51500;DHT22;39101;53.478;6.158;2023-04-06T08:01:09;6.20;99.90
51500;DHT22;39101;53.478;6.158;2023-04-06T08:03:36;6.40;99.90
51500;DHT22;39101;53.478;6.158;2023-04-06T08:06:02;6.40;99.90
51500;DHT22;39101;53.478;6.158;2023-04-06T08:08:29;6.50;99.90
51500;DHT22;39101;53.478;6.158;2023-04-06T08:10:54;6.70;99.90
51500;DHT22;39101;53.478;6.158;2023-04-06T08:13:20;6.70;99.90
51500;DHT22;39101;53.478;6.158;2023-04-06T08:15:46;6.80;99.90
51500;DHT22;39101;53.478;6.158;2023-04-06T08:18:12;6.90;99.90
51500;DHT22;39101;53.478;6.158;2023-04-06T08:20:38;7.00;99.90
51500;DHT22;39101;53.478;6.158;2023-04-06T08:23:04;7.10;99.90
51500;DHT22;39101;53.478;6.158;2023-04-06T08:25:30;7.30;99.90
51500;DHT22;39101;53.478;6.158;2023-04-06T08:27:56;7.40;99.90
51500;DHT22;39101;53.478;6.158;2023-04-06T08:30:21;7.60;99.90
51500;DHT22;39101;53.478;6.158;2023-04-06T08:32:47;7.80;99.90
51500;DHT22;39101;53.478;6.158;2023-04-06T08:35:13;7.90;99.90
51500;DHT22;39101;53.478;6.158;2023-04-06T08:37:39;8.10;99.90
51500;DHT22;39101;53.478;6.158;2023-04-06T08:40:05;8.10;99.90
51500;DHT22;39101;53.478;6.158;2023-04-06T08:42:39;8.20;99.90
51500;DHT22;39101;53.478;6.158;2023-04-06T08:45:07;8.20;99.90
51500;DHT22;39101;53.478;6.158;2023-04-06T08:47:35;8.30;99.90
51500;DHT22;39101;53.478;6.158;2023-04-06T08:50:03;8.30;99.90
51500;DHT22;39101;53.478;6.158;2023-04-06T08:52:31;8.40;99.90
51500;DHT22;39101;53.478;6.158;2023-04-06T08:54:58;8.40;99.90
51500;DHT22;39101;53.478;6.158;2023-04-06T08:57:24;8.50;99.90
51500;DHT22;39101;53.478;6.158;2023-04-06T08:59:51;8.60;99.90
51500;DHT22;39101;53.478;6.158;2023-04-06T09:02:18;8.60;99.90
51500;DHT22;39101;53.478;6.158;2023-04-06T09:04:53;8.70;99.90
51500;DHT22;39101;53.478;6.158;2023-04-06T09:07:20;8.70;99.90
51500;DHT22;39101;53.478;6.158;2023-04-06T09:09:47;8.70;99.90
51500;DHT22;39101;53.478;6.158;2023-04-06T09:12:27;8.80;99.90
51500;DHT22;39101;53.478;6.158;2023-04-06T09:14:54;8.80;99.90
51500;DHT22;39101;53.478;6.158;2023-04-06T09:19:50;8.90;99.90
51500;DHT22;39101;53.478;6.158;2023-04-06T09:22:17;8.90;99.90
51500;DHT22;39101;53.478;6.158;2023-04-06T09:24:45;8.90;99.90
51500;DHT22;39101;53.478;6.158;2023-04-06T09:27:11;9.00;99.90
51500;DHT22;39101;53.478;6.158;2023-04-06T09:29:37;9.00;99.90
51500;DHT22;39101;53.478;6.158;2023-04-06T09:32:08;9.10;99.90
51500;DHT22;39101;53.478;6.158;2023-04-06T09:34:37;9.20;99.90
51500;DHT22;39101;53.478;6.158;2023-04-06T09:37:17;9.30;99.90
51500;DHT22;39101;53.478;6.158;2023-04-06T09:39:44;9.30;99.90
51500;DHT22;39101;53.478;6.158;2023-04-06T09:42:11;9.40;99.90
51500;DHT22;39101;53.478;6.158;2023-04-06T09:44:36;9.40;99.90
51500;DHT22;39101;53.478;6.158;2023-04-06T09:47:05;9.50;99.90
51500;DHT22;39101;53.478;6.158;2023-04-06T09:49:33;9.50;99.90
51500;DHT22;39101;53.478;6.158;2023-04-06T09:52:02;9.60;99.90
51500;DHT22;39101;53.478;6.158;2023-04-06T09:54:30;9.70;99.90
51500;DHT22;39101;53.478;6.158;2023-04-06T09:57:07;9.70;99.90
51500;DHT22;39101;53.478;6.158;2023-04-06T10:00:11;9.90;99.90
51500;DHT22;39101;53.478;6.158;2023-04-06T10:02:58;10.00;99.90
51500;DHT22;39101;53.478;6.158;2023-04-06T10:08:06;10.30;99.90
51500;DHT22;39101;53.478;6.158;2023-04-06T10:10:32;10.40;99.90
51500;DHT22;39101;53.478;6.158;2023-04-06T10:12:58;10.40;99.90
51500;DHT22;39101;53.478;6.158;2023-04-06T10:15:27;10.50;99.90
51500;DHT22;39101;53.478;6.158;2023-04-06T10:17:53;10.50;99.90
51500;DHT22;39101;53.478;6.158;2023-04-06T10:23:09;10.50;99.90
51500;DHT22;39101;53.478;6.158;2023-04-06T10:25:39;10.60;99.90
51500;DHT22;39101;53.478;6.158;2023-04-06T10:28:06;10.70;99.90
51500;DHT22;39101;53.478;6.158;2023-04-06T10:30:33;10.80;99.90
51500;DHT22;39101;53.478;6.158;2023-04-06T10:32:59;10.80;99.90
51500;DHT22;39101;53.478;6.158;2023-04-06T10:35:36;10.90;99.90
51500;DHT22;39101;53.478;6.158;2023-04-06T10:38:04;11.00;99.90
51500;DHT22;39101;53.478;6.158;2023-04-06T10:40:30;11.00;99.90
51500;DHT22;39101;53.478;6.158;2023-04-06T10:43:08;11.10;99.90
51500;DHT22;39101;53.478;6.158;2023-04-06T10:45:34;11.10;99.90
51500;DHT22;39101;53.478;6.158;2023-04-06T10:48:00;11.20;99.90
51500;DHT22;39101;53.478;6.158;2023-04-06T10:50:28;11.30;99.90
51500;DHT22;39101;53.478;6.158;2023-04-06T10:53:02;11.40;99.90
51500;DHT22;39101;53.478;6.158;2023-04-06T10:55:29;11.50;99.90
51500;DHT22;39101;53.478;6.158;2023-04-06T10:57:55;11.60;99.90
51500;DHT22;39101;53.478;6.158;2023-04-06T11:00:20;11.60;99.90
51500;DHT22;39101;53.478;6.158;2023-04-06T11:02:49;11.70;99.90
51500;DHT22;39101;53.478;6.158;2023-04-06T11:05:14;11.70;99.90
51500;DHT22;39101;53.478;6.158;2023-04-06T11:07:40;11.70;99.90
51500;DHT22;39101;53.478;6.158;2023-04-06T11:10:07;11.70;99.90
51500;DHT22;39101;53.478;6.158;2023-04-06T11:12:33;11.90;99.90
51500;DHT22;39101;53.478;6.158;2023-04-06T11:15:03;11.90;99.90
51500;DHT22;39101;53.478;6.158;2023-04-06T11:17:34;12.00;99.90
51500;DHT22;39101;53.478;6.158;2023-04-06T11:20:00;12.10;99.90
51500;DHT22;39101;53.478;6.158;2023-04-06T11:22:26;12.20;99.90
51500;DHT22;39101;53.478;6.158;2023-04-06T11:24:52;12.10;99.90
51500;DHT22;39101;53.478;6.158;2023-04-06T11:27:21;12.10;99.90
51500;DHT22;39101;53.478;6.158;2023-04-06T11:29:47;12.10;99.90
51500;DHT22;39101;53.478;6.158;2023-04-06T11:32:22;12.20;99.90
51500;DHT22;39101;53.478;6.158;2023-04-06T11:34:49;12.10;99.90
51500;DHT22;39101;53.478;6.158;2023-04-06T11:37:14;12.10;99.90
51500;DHT22;39101;53.478;6.158;2023-04-06T11:39:51;12.10;99.90
51500;DHT22;39101;53.478;6.158;2023-04-06T11:42:29;12.20;99.90
51500;DHT22;39101;53.478;6.158;2023-04-06T11:44:56;12.20;99.90
51500;DHT22;39101;53.478;6.158;2023-04-06T11:47:36;12.20;99.90
51500;DHT22;39101;53.478;6.158;2023-04-06T11:50:13;12.20;99.90
51500;DHT22;39101;53.478;6.158;2023-04-06T11:52:42;12.20;99.90
51500;DHT22;39101;53.478;6.158;2023-04-06T11:55:16;12.20;99.90
51500;DHT22;39101;53.478;6.158;2023-04-06T11:57:43;12.20;99.90
51500;DHT22;39101;53.478;6.158;2023-04-06T12:00:10;12.20;99.90
51500;DHT22;39101;53.478;6.158;2023-04-06T12:02:37;12.20;99.90
51500;DHT22;39101;53.478;6.158;2023-04-06T12:05:03;12.20;99.90
51500;DHT22;39101;53.478;6.158;2023-04-06T12:07:30;12.20;99.90
51500;DHT22;39101;53.478;6.158;2023-04-06T12:09:57;12.20;99.90
51500;DHT22;39101;53.478;6.158;2023-04-06T12:12:23;12.20;99.90
51500;DHT22;39101;53.478;6.158;2023-04-06T12:14:49;12.20;99.90
51500;DHT22;39101;53.478;6.158;2023-04-06T12:17:14;12.20;99.90
51500;DHT22;39101;53.478;6.158;2023-04-06T12:19:40;12.20;99.90
51500;DHT22;39101;53.478;6.158;2023-04-06T12:22:06;12.30;99.90
51500;DHT22;39101;53.478;6.158;2023-04-06T12:24:31;12.30;99.90
51500;DHT22;39101;53.478;6.158;2023-04-06T12:26:57;12.20;99.90
51500;DHT22;39101;53.478;6.158;2023-04-06T12:29:24;12.30;99.90
51500;DHT22;39101;53.478;6.158;2023-04-06T12:31:52;12.30;99.90
51500;DHT22;39101;53.478;6.158;2023-04-06T12:34:18;12.30;99.90
51500;DHT22;39101;53.478;6.158;2023-04-06T12:36:44;12.40;99.90
51500;DHT22;39101;53.478;6.158;2023-04-06T12:39:10;12.40;99.90
51500;DHT22;39101;53.478;6.158;2023-04-06T12:41:36;12.50;99.90
51500;DHT22;39101;53.478;6.158;2023-04-06T12:44:02;12.40;99.90
51500;DHT22;39101;53.478;6.158;2023-04-06T12:46:29;12.40;99.90
51500;DHT22;39101;53.478;6.158;2023-04-06T12:48:58;12.40;99.90
51500;DHT22;39101;53.478;6.158;2023-04-06T12:51:27;12.40;99.90
51500;DHT22;39101;53.478;6.158;2023-04-06T12:53:54;12.50;99.90
51500;DHT22;39101;53.478;6.158;2023-04-06T12:56:20;12.40;99.90
51500;DHT22;39101;53.478;6.158;2023-04-06T12:58:50;12.40;99.90
51500;DHT22;39101;53.478;6.158;2023-04-06T13:01:16;12.40;99.90
51500;DHT22;39101;53.478;6.158;2023-04-06T13:03:43;12.30;99.90
51500;DHT22;39101;53.478;6.158;2023-04-06T13:06:09;12.30;99.90
51500;DHT22;39101;53.478;6.158;2023-04-06T13:08:35;12.10;99.90
51500;DHT22;39101;53.478;6.158;2023-04-06T13:11:02;12.10;99.90
51500;DHT22;39101;53.478;6.158;2023-04-06T13:13:29;12.10;99.90
51500;DHT22;39101;53.478;6.158;2023-04-06T13:15:59;12.10;99.90
51500;DHT22;39101;53.478;6.158;2023-04-06T13:18:26;12.10;99.90
51500;DHT22;39101;53.478;6.158;2023-04-06T13:20:52;12.00;99.90
51500;DHT22;39101;53.478;6.158;2023-04-06T13:23:18;12.00;99.90
51500;DHT22;39101;53.478;6.158;2023-04-06T13:25:43;12.00;99.90
51500;DHT22;39101;53.478;6.158;2023-04-06T13:28:10;12.10;99.90
51500;DHT22;39101;53.478;6.158;2023-04-06T13:30:36;12.20;99.90
51500;DHT22;39101;53.478;6.158;2023-04-06T13:33:02;12.20;99.90
51500;DHT22;39101;53.478;6.158;2023-04-06T13:35:28;12.30;99.90
51500;DHT22;39101;53.478;6.158;2023-04-06T13:37:53;12.30;99.90
51500;DHT22;39101;53.478;6.158;2023-04-06T13:40:19;12.50;99.90
51500;DHT22;39101;53.478;6.158;2023-04-06T13:42:47;12.70;99.90
51500;DHT22;39101;53.478;6.158;2023-04-06T13:45:12;12.80;99.90
51500;DHT22;39101;53.478;6.158;2023-04-06T13:47:38;12.70;99.90
51500;DHT22;39101;53.478;6.158;2023-04-06T13:50:05;12.60;99.90
51500;DHT22;39101;53.478;6.158;2023-04-06T13:52:30;12.50;99.90
51500;DHT22;39101;53.478;6.158;2023-04-06T13:54:56;12.40;99.90
51500;DHT22;39101;53.478;6.158;2023-04-06T13:57:22;12.40;99.90
51500;DHT22;39101;53.478;6.158;2023-04-06T13:59:47;12.40;99.90
51500;DHT22;39101;53.478;6.158;2023-04-06T14:02:15;12.40;99.90
51500;DHT22;39101;53.478;6.158;2023-04-06T14:04:41;12.70;99.90
51500;DHT22;39101;53.478;6.158;2023-04-06T14:07:06;12.70;99.90
51500;DHT22;39101;53.478;6.158;2023-04-06T14:09:33;12.70;99.90
51500;DHT22;39101;53.478;6.158;2023-04-06T14:11:59;12.50;99.90
51500;DHT22;39101;53.478;6.158;2023-04-06T14:14:24;12.40;99.90
51500;DHT22;39101;53.478;6.158;2023-04-06T14:16:51;12.40;99.90
51500;DHT22;39101;53.478;6.158;2023-04-06T14:19:17;12.30;99.90
51500;DHT22;39101;53.478;6.158;2023-04-06T14:21:44;12.10;99.90
51500;DHT22;39101;53.478;6.158;2023-04-06T14:24:10;11.80;99.90
51500;DHT22;39101;53.478;6.158;2023-04-06T14:26:37;11.70;99.90
51500;DHT22;39101;53.478;6.158;2023-04-06T14:29:03;11.70;99.90
51500;DHT22;39101;53.478;6.158;2023-04-06T14:31:30;11.60;99.90
51500;DHT22;39101;53.478;6.158;2023-04-06T14:33:56;11.60;99.90
51500;DHT22;39101;53.478;6.158;2023-04-06T14:36:22;11.60;99.90
51500;DHT22;39101;53.478;6.158;2023-04-06T14:38:48;11.70;99.90
51500;DHT22;39101;53.478;6.158;2023-04-06T14:41:21;11.60;99.90
51500;DHT22;39101;53.478;6.158;2023-04-06T14:43:47;11.60;99.90
51500;DHT22;39101;53.478;6.158;2023-04-06T14:46:13;11.60;99.90
51500;DHT22;39101;53.478;6.158;2023-04-06T14:48:39;11.50;99.90
51500;DHT22;39101;53.478;6.158;2023-04-06T14:51:05;11.40;99.90
51500;DHT22;39101;53.478;6.158;2023-04-06T14:53:31;11.30;99.90
51500;DHT22;39101;53.478;6.158;2023-04-06T14:55:57;11.30;99.90
51500;DHT22;39101;53.478;6.158;2023-04-06T14:58:23;11.10;99.90
51500;DHT22;39101;53.478;6.158;2023-04-06T15:00:49;11.00;99.90
51500;DHT22;39101;53.478;6.158;2023-04-06T15:03:20;10.90;99.90
51500;DHT22;39101;53.478;6.158;2023-04-06T15:05:45;10.80;99.90
51500;DHT22;39101;53.478;6.158;2023-04-06T15:08:11;10.70;99.90
51500;DHT22;39101;53.478;6.158;2023-04-06T15:10:39;10.50;99.90
51500;DHT22;39101;53.478;6.158;2023-04-06T15:13:04;10.50;99.90
51500;DHT22;39101;53.478;6.158;2023-04-06T15:15:30;10.40;99.90
51500;DHT22;39101;53.478;6.158;2023-04-06T15:17:56;10.40;99.90
51500;DHT22;39101;53.478;6.158;2023-04-06T15:20:22;10.30;99.90
51500;DHT22;39101;53.478;6.158;2023-04-06T15:22:48;10.20;99.90
51500;DHT22;39101;53.478;6.158;2023-04-06T15:25:13;10.10;99.90
51500;DHT22;39101;53.478;6.158;2023-04-06T15:27:39;10.00;99.90
51500;DHT22;39101;53.478;6.158;2023-04-06T15:30:05;9.80;99.90
51500;DHT22;39101;53.478;6.158;2023-04-06T15:32:31;9.80;99.90
51500;DHT22;39101;53.478;6.158;2023-04-06T15:34:58;9.60;99.90
51500;DHT22;39101;53.478;6.158;2023-04-06T15:37:24;9.50;99.90
51500;DHT22;39101;53.478;6.158;2023-04-06T15:39:49;9.30;99.90
51500;DHT22;39101;53.478;6.158;2023-04-06T15:42:15;9.30;99.90
51500;DHT22;39101;53.478;6.158;2023-04-06T15:44:41;9.10;99.90